AVN weather

Avignon-Caumont Airport
Avignon/Caumont, Provence-Alpes-Côte-d'Azur, France

Public forecast

Using degrees Celsius for public forecast. Weather courtesy of forecast.io.

Current aviation weather report (METAR) for Avignon-Caumont Airport

Retrieved 2020/06/06 16:30 UTC (37 minutes ago):

LFMV 061630Z AUTO 19011KT CAVOK 25/15 Q1006 NOSIG

Aviation forecast (TAF) for Avignon-Caumont Airport

Retrieved 2020/06/06 15:00 UTC (2 hours ago):

TAF LFMV 061400Z 0615/0715 21010KT CAVOK BECMG 0619/0621 VRB02KT TEMPO 0621/0706 3000 RA BR BKN014 FEW050TCU PROB30 TEMPO 0700/0705 VRB12KT TSRA BKN010 BKN040CB BECMG 0709/0711 34010KT